createdAt,value
2019-03-27T00:07:30.831Z,13.27
2019-03-27T00:10:00.945Z,13.70
2019-03-27T00:12:30.946Z,14.20
2019-03-27T00:15:12.120Z,12.70
2019-03-27T00:17:33.302Z,13.43
2019-03-27T00:20:03.326Z,15.00
2019-03-27T00:22:33.791Z,17.13
2019-03-27T00:27:40.589Z,17.57
2019-03-27T00:30:31.314Z,15.60
2019-03-27T00:33:01.645Z,13.37
2019-03-27T00:35:31.631Z,16.83
2019-03-27T00:38:01.592Z,16.93
2019-03-27T00:40:31.746Z,17.03
2019-03-27T00:43:02.203Z,14.47
2019-03-27T00:45:33.620Z,16.90
2019-03-27T00:48:26.026Z,16.47
2019-03-27T00:50:56.073Z,18.07
2019-03-27T00:53:25.974Z,14.43
2019-03-27T00:55:55.989Z,16.50
2019-03-27T00:58:25.976Z,15.53
2019-03-27T01:03:56.987Z,17.00
2019-03-27T01:06:29.007Z,15.93
2019-03-27T01:08:59.819Z,14.90
2019-03-27T01:11:30.579Z,18.73
2019-03-27T01:14:01.025Z,16.50
2019-03-27T01:16:31.697Z,14.80
2019-03-27T01:19:02.986Z,16.20
2019-03-27T01:21:35.255Z,16.57
2019-03-27T01:24:05.846Z,16.37
2019-03-27T01:26:36.286Z,14.13
2019-03-27T01:29:06.245Z,16.20
2019-03-27T01:31:36.950Z,15.70
2019-03-27T01:34:07.488Z,12.93
2019-03-27T01:36:38.283Z,14.90
2019-03-27T01:39:29.344Z,18.57
2019-03-27T01:41:59.168Z,14.83
2019-03-27T01:44:29.391Z,13.53
2019-03-27T01:46:59.341Z,15.70
2019-03-27T01:49:29.117Z,16.27
2019-03-27T01:51:58.952Z,18.60
2019-03-27T01:54:28.759Z,15.47
2019-03-27T01:56:58.613Z,16.23
2019-03-27T01:59:28.418Z,17.10
2019-03-27T02:01:58.275Z,15.80
2019-03-27T02:04:28.085Z,18.30
2019-03-27T02:06:58.774Z,15.77
2019-03-27T02:09:28.715Z,17.47
2019-03-27T02:11:58.613Z,17.17
2019-03-27T02:14:28.489Z,17.17
2019-03-27T02:16:58.498Z,16.80
2019-03-27T02:19:28.419Z,19.20
2019-03-27T02:21:58.271Z,15.87
2019-03-27T02:24:28.123Z,19.27
2019-03-27T02:26:57.922Z,18.77
2019-03-27T02:29:27.748Z,16.83
2019-03-27T02:31:57.526Z,19.23
2019-03-27T02:34:27.417Z,14.80
2019-03-27T02:36:57.592Z,18.43
2019-03-27T02:39:27.425Z,16.07
2019-03-27T02:41:57.186Z,15.37
2019-03-27T02:44:27.035Z,17.97
2019-03-27T02:46:56.907Z,16.87
2019-03-27T02:49:26.785Z,17.37
2019-03-27T02:51:56.639Z,18.07
2019-03-27T02:54:26.537Z,21.00
2019-03-27T02:56:56.820Z,18.67
2019-03-27T02:59:26.992Z,19.07
2019-03-27T03:01:56.724Z,21.07
2019-03-27T03:04:26.518Z,18.53
2019-03-27T03:06:56.258Z,18.03
2019-03-27T03:09:26.358Z,18.77
2019-03-27T03:11:56.108Z,21.73
2019-03-27T03:14:25.913Z,20.83
2019-03-27T03:16:55.634Z,18.97
2019-03-27T03:19:25.427Z,19.87
2019-03-27T03:21:55.163Z,20.83
2019-03-27T03:24:25.669Z,22.60
2019-03-27T03:26:55.406Z,22.97
2019-03-27T03:29:25.201Z,18.97
2019-03-27T03:31:54.942Z,20.80
2019-03-27T03:34:24.784Z,22.10
2019-03-27T03:36:54.532Z,21.50
2019-03-27T03:39:24.342Z,21.77
2019-03-27T03:41:54.080Z,21.37
2019-03-27T03:44:23.821Z,22.53
2019-03-27T03:47:00.121Z,21.20
2019-03-27T03:49:25.379Z,21.53
2019-03-27T03:51:55.185Z,21.13
2019-03-27T03:57:59.966Z,22.33
2019-03-27T04:01:08.881Z,22.77
2019-03-27T04:07:06.501Z,22.93
2019-03-27T04:09:36.523Z,20.30
2019-03-27T04:12:06.306Z,22.23
2019-03-27T04:14:36.050Z,20.83
2019-03-27T04:17:16.890Z,21.83
2019-03-27T04:19:37.299Z,22.40
2019-03-27T04:22:07.107Z,24.40
2019-03-27T04:24:36.834Z,23.33
2019-03-27T04:27:06.648Z,21.20
2019-03-27T04:29:36.389Z,22.87
2019-03-27T04:32:06.125Z,27.37
2019-03-27T04:34:35.971Z,27.70
2019-03-27T04:37:05.708Z,28.17
2019-03-27T04:39:35.491Z,23.63
2019-03-27T04:42:05.228Z,25.53
2019-03-27T04:44:35.291Z,24.10
2019-03-27T04:47:05.041Z,24.53
2019-03-27T04:49:34.814Z,25.87
2019-03-27T04:52:04.556Z,22.90
2019-03-27T04:54:34.380Z,25.13
2019-03-27T04:57:04.119Z,24.07
2019-03-27T04:59:35.156Z,25.00
2019-03-27T05:02:06.632Z,25.93
2019-03-27T05:07:13.798Z,25.10
2019-03-27T05:09:44.512Z,25.27
2019-03-27T05:12:14.268Z,22.73
2019-03-27T05:14:44.085Z,23.33
2019-03-27T05:17:13.830Z,25.10
2019-03-27T05:19:43.927Z,23.40
2019-03-27T05:22:14.040Z,26.33
2019-03-27T05:24:44.136Z,25.47
2019-03-27T05:27:14.208Z,25.87
2019-03-27T05:29:44.296Z,26.90
2019-03-27T05:32:14.067Z,27.53
2019-03-27T05:34:44.007Z,25.17
2019-03-27T05:37:13.751Z,27.43
2019-03-27T05:39:43.563Z,26.47
2019-03-27T05:42:13.338Z,23.50
2019-03-27T05:44:43.173Z,26.90
2019-03-27T05:47:13.191Z,27.57
2019-03-27T05:49:42.992Z,24.60
2019-03-27T05:52:12.744Z,22.23
2019-03-27T05:57:18.022Z,23.07
2019-03-27T06:00:06.735Z,23.73
2019-03-27T06:02:36.473Z,23.43
2019-03-27T06:05:45.439Z,22.87
2019-03-27T06:08:15.176Z,25.40
2019-03-27T06:10:44.974Z,26.17
2019-03-27T06:13:14.722Z,24.67
2019-03-27T06:18:36.838Z,25.40
2019-03-27T06:21:06.692Z,26.97
2019-03-27T06:23:36.510Z,26.87
2019-03-27T06:26:06.373Z,27.90
2019-03-27T06:28:36.135Z,24.80
2019-03-27T06:31:08.481Z,26.77
2019-03-27T06:33:38.455Z,28.67
2019-03-27T06:36:08.707Z,25.33
2019-03-27T06:38:38.503Z,26.27
2019-03-27T06:41:08.371Z,27.70
2019-03-27T06:43:38.153Z,27.50
2019-03-27T06:46:08.019Z,24.67
2019-03-27T06:48:37.888Z,25.30
2019-03-27T06:51:07.831Z,26.33
2019-03-27T06:53:37.726Z,23.73
2019-03-27T06:56:07.515Z,26.33
2019-03-27T06:58:37.394Z,24.20
2019-03-27T07:01:07.366Z,24.40
2019-03-27T07:03:37.546Z,29.53
2019-03-27T07:06:07.448Z,25.83
2019-03-27T07:08:37.229Z,32.93
2019-03-27T07:11:09.555Z,27.97
2019-03-27T07:25:27.497Z,30.50
2019-03-27T07:27:57.383Z,27.27
2019-03-27T07:30:27.622Z,33.20
2019-03-27T07:32:57.595Z,28.40
2019-03-27T07:35:27.728Z,28.87
2019-03-27T07:37:57.646Z,30.33
2019-03-27T07:40:28.046Z,29.03
2019-03-27T07:42:57.807Z,27.47
2019-03-27T07:45:27.635Z,28.17
2019-03-27T07:47:57.715Z,30.70
2019-03-27T07:50:27.520Z,29.77
2019-03-27T07:52:57.280Z,30.83
2019-03-27T07:55:27.090Z,33.30
2019-03-27T07:57:57.019Z,34.60
2019-03-27T08:00:26.919Z,29.93
2019-03-27T08:02:57.284Z,34.80
2019-03-27T08:05:25.617Z,29.27
2019-03-27T08:07:55.471Z,31.00
2019-03-27T08:10:25.721Z,27.20
2019-03-27T08:12:55.438Z,29.57
2019-03-27T08:15:25.357Z,28.20
2019-03-27T08:18:34.235Z,27.10
2019-03-27T08:21:04.020Z,28.40
2019-03-27T08:23:33.751Z,26.17
2019-03-27T08:28:38.432Z,26.20
2019-03-27T08:31:08.209Z,25.97
2019-03-27T08:33:38.364Z,26.50
2019-03-27T08:36:08.186Z,23.83
2019-03-27T08:38:37.914Z,30.53
2019-03-27T08:41:08.006Z,26.43
2019-03-27T08:43:37.746Z,29.20
2019-03-27T08:46:07.532Z,26.27
2019-03-27T08:48:39.154Z,23.53
2019-03-27T08:51:08.820Z,26.53
2019-03-27T08:56:51.101Z,25.73
2019-03-27T08:59:20.905Z,27.77
2019-03-27T09:02:13.203Z,25.90
2019-03-27T09:04:43.082Z,28.07
2019-03-27T09:07:12.991Z,26.37
2019-03-27T09:09:42.820Z,28.37
2019-03-27T09:12:32.408Z,25.10
2019-03-27T09:15:02.192Z,25.70
2019-03-27T09:18:02.095Z,28.77
2019-03-27T09:20:31.896Z,25.83
2019-03-27T09:23:01.733Z,31.20
2019-03-27T09:25:31.614Z,28.50
2019-03-27T09:28:01.767Z,29.33
2019-03-27T09:33:45.545Z,27.43
2019-03-27T09:36:15.594Z,27.93
2019-03-27T09:38:45.602Z,24.60
2019-03-27T09:41:16.050Z,25.60
2019-03-27T09:43:46.212Z,22.40
2019-03-27T09:46:16.023Z,22.97
2019-03-27T09:48:45.824Z,22.80
2019-03-27T09:51:15.600Z,23.10
2019-03-27T09:53:45.413Z,22.90
2019-03-27T09:56:19.241Z,19.60
2019-03-27T09:58:46.878Z,21.77
2019-03-27T10:01:16.624Z,18.87
2019-03-27T10:03:46.704Z,22.17
2019-03-27T10:06:16.479Z,21.70
2019-03-27T10:08:46.298Z,23.57
2019-03-27T10:11:16.124Z,21.30
2019-03-27T10:13:45.933Z,19.37
2019-03-27T10:16:18.024Z,18.80
2019-03-27T10:18:47.866Z,18.73
2019-03-27T10:21:20.042Z,17.90
2019-03-27T10:23:49.838Z,19.30
2019-03-27T10:26:38.425Z,22.87
2019-03-27T10:29:08.381Z,20.10
2019-03-27T10:31:59.251Z,19.10
2019-03-27T10:34:29.163Z,18.37
2019-03-27T10:36:58.949Z,19.13
2019-03-27T10:39:28.797Z,16.53
2019-03-27T10:41:58.682Z,21.90
2019-03-27T10:44:28.541Z,18.07
2019-03-27T10:46:58.410Z,18.10
2019-03-27T10:49:28.130Z,17.13
2019-03-27T10:51:58.242Z,18.23
2019-03-27T10:54:27.984Z,18.20
2019-03-27T10:56:57.825Z,17.87
2019-03-27T10:59:27.558Z,16.77
2019-03-27T11:01:57.451Z,17.27
2019-03-27T11:07:17.702Z,18.67
2019-03-27T11:09:47.465Z,17.80
2019-03-27T11:12:17.318Z,18.97
2019-03-27T11:14:47.449Z,15.90
2019-03-27T11:17:17.331Z,15.70
2019-03-27T11:19:47.229Z,17.03
2019-03-27T11:22:17.014Z,16.47
2019-03-27T11:24:46.768Z,15.33
2019-03-27T11:27:16.586Z,15.90
2019-03-27T11:29:46.326Z,15.57
2019-03-27T11:32:16.542Z,16.47
2019-03-27T11:34:46.433Z,17.07
2019-03-27T11:37:16.361Z,17.40
2019-03-27T11:39:46.109Z,18.13
2019-03-27T11:42:16.299Z,21.00
2019-03-27T11:44:46.182Z,16.77
2019-03-27T11:50:05.472Z,11.93
2019-03-27T11:52:35.258Z,13.83
2019-03-27T11:55:05.401Z,13.07
2019-03-27T11:57:35.213Z,12.43
2019-03-27T12:03:14.773Z,14.50
2019-03-27T12:05:45.793Z,15.97
2019-03-27T12:08:16.187Z,13.27
2019-03-27T12:10:45.927Z,17.63
2019-03-27T12:13:16.306Z,14.77
2019-03-27T12:15:46.204Z,17.03
2019-03-27T12:18:55.658Z,15.00
2019-03-27T12:21:25.416Z,15.10
2019-03-27T12:23:55.293Z,15.30
2019-03-27T12:26:25.902Z,14.00
2019-03-27T12:31:32.537Z,13.33
2019-03-27T12:34:02.713Z,14.23
2019-03-27T12:36:32.549Z,13.27
2019-03-27T12:39:04.621Z,11.40
2019-03-27T12:41:34.355Z,11.90
2019-03-27T12:44:04.156Z,13.53
2019-03-27T12:46:33.909Z,12.93
2019-03-27T12:49:03.715Z,13.17
2019-03-27T12:51:33.463Z,13.30
2019-03-27T12:54:03.269Z,12.43
2019-03-27T12:56:33.486Z,13.10
2019-03-27T12:59:03.812Z,14.40
2019-03-27T13:01:34.333Z,14.73
2019-03-27T13:04:04.877Z,12.90
2019-03-27T13:06:35.098Z,12.40
2019-03-27T13:09:43.952Z,11.50
2019-03-27T13:14:50.532Z,12.80
2019-03-27T13:17:20.863Z,13.60
2019-03-27T13:19:50.609Z,12.17
2019-03-27T13:22:20.520Z,13.40
2019-03-27T13:24:50.678Z,11.67
2019-03-27T13:27:20.586Z,25.60
2019-03-27T13:29:51.118Z,12.87
2019-03-27T13:32:20.968Z,12.67
2019-03-27T13:34:50.759Z,11.60
2019-03-27T13:37:20.589Z,12.63
2019-03-27T13:39:50.328Z,9.73
2019-03-27T13:42:20.141Z,11.23
2019-03-27T13:44:49.883Z,10.80
2019-03-27T13:47:19.695Z,11.83
2019-03-27T13:49:49.544Z,11.30
2019-03-27T13:52:19.719Z,11.10
2019-03-27T13:54:49.849Z,11.17
2019-03-27T13:57:19.670Z,9.37
2019-03-27T13:59:49.812Z,9.97
2019-03-27T14:02:19.626Z,10.60
2019-03-27T14:04:49.371Z,13.83
2019-03-27T14:07:19.212Z,10.70
2019-03-27T14:09:48.993Z,12.17
2019-03-27T14:12:18.819Z,12.30
2019-03-27T14:14:50.557Z,10.77
2019-03-27T14:17:20.116Z,9.73
2019-03-27T14:19:50.216Z,9.83
2019-03-27T14:22:20.022Z,8.40
2019-03-27T14:24:50.146Z,9.00
2019-03-27T14:27:19.957Z,8.60
2019-03-27T14:29:49.700Z,8.87
2019-03-27T14:32:19.518Z,9.40
2019-03-27T14:34:49.336Z,10.07
2019-03-27T14:37:19.183Z,10.43
2019-03-27T14:39:48.910Z,9.63
2019-03-27T14:42:18.748Z,10.07
2019-03-27T14:44:48.843Z,9.93
2019-03-27T14:47:18.600Z,10.37
2019-03-27T14:49:48.408Z,10.03
2019-03-27T14:52:18.259Z,10.37
2019-03-27T14:54:48.061Z,10.07
2019-03-27T14:57:18.118Z,9.83
2019-03-27T14:59:47.896Z,11.97
2019-03-27T15:02:17.686Z,8.73
2019-03-27T15:04:47.479Z,12.57
2019-03-27T15:07:17.226Z,11.57
2019-03-27T15:09:47.117Z,9.07
2019-03-27T15:12:16.882Z,9.87
2019-03-27T15:14:46.683Z,8.70
2019-03-27T15:17:16.496Z,11.00
2019-03-27T15:19:46.626Z,11.87
2019-03-27T15:22:22.250Z,9.73
2019-03-27T15:24:48.119Z,8.87
2019-03-27T15:27:17.919Z,8.40
2019-03-27T15:29:48.026Z,7.20
2019-03-27T15:32:17.764Z,6.60
2019-03-27T15:34:47.615Z,7.97
2019-03-27T15:37:17.911Z,10.20
2019-03-27T15:39:47.737Z,8.40
2019-03-27T15:42:17.843Z,9.07
2019-03-27T15:44:49.755Z,9.27
2019-03-27T15:47:19.187Z,9.73
2019-03-27T15:49:48.958Z,8.67
2019-03-27T15:52:19.157Z,7.63
2019-03-27T15:54:49.349Z,8.27
2019-03-27T15:57:19.235Z,9.97
2019-03-27T15:59:48.993Z,7.40
2019-03-27T16:02:18.796Z,9.73
2019-03-27T16:04:48.548Z,9.10
2019-03-27T16:07:18.372Z,9.70
2019-03-27T16:09:48.123Z,10.33
2019-03-27T16:12:17.950Z,9.57
2019-03-27T16:14:47.711Z,11.30
2019-03-27T16:17:17.584Z,12.17
2019-03-27T16:19:47.491Z,9.73
2019-03-27T16:22:17.652Z,12.30
2019-03-27T16:24:47.403Z,11.43
2019-03-27T16:27:17.244Z,10.40
2019-03-27T16:29:47.057Z,11.23
2019-03-27T16:32:16.960Z,8.90
2019-03-27T16:34:46.918Z,9.30
2019-03-27T16:37:16.808Z,9.63
2019-03-27T16:39:46.595Z,8.90
2019-03-27T16:42:16.432Z,8.40
2019-03-27T16:44:46.203Z,9.87
2019-03-27T16:47:16.052Z,8.57
2019-03-27T16:49:45.833Z,9.50
2019-03-27T16:52:15.686Z,9.83
2019-03-27T16:54:45.442Z,8.83
2019-03-27T16:57:15.177Z,11.30
2019-03-27T16:59:45.550Z,8.33
2019-03-27T17:02:15.333Z,10.37
2019-03-27T17:04:45.188Z,10.30
2019-03-27T17:07:14.961Z,10.10
2019-03-27T17:09:44.897Z,8.30
2019-03-27T17:12:15.025Z,8.30
2019-03-27T17:14:44.836Z,8.50
2019-03-27T17:17:15.216Z,12.20
2019-03-27T17:19:45.192Z,8.13
2019-03-27T17:22:19.660Z,9.00
2019-03-27T17:24:47.193Z,10.37
2019-03-27T17:27:17.011Z,9.10
2019-03-27T17:29:46.850Z,10.03
2019-03-27T17:32:16.565Z,11.13
2019-03-27T17:34:57.587Z,9.43
2019-03-27T17:37:27.485Z,13.00
2019-03-27T17:39:57.294Z,9.23
2019-03-27T17:42:27.029Z,11.07
2019-03-27T17:44:57.139Z,10.37
2019-03-27T17:47:26.882Z,10.30
2019-03-27T17:49:56.687Z,11.13
2019-03-27T17:52:26.770Z,10.17
2019-03-27T17:54:56.632Z,9.53
2019-03-27T17:57:26.711Z,11.83
2019-03-27T17:59:56.631Z,12.83
2019-03-27T18:02:26.393Z,10.90
2019-03-27T18:04:56.195Z,11.93
2019-03-27T18:07:26.255Z,11.43
2019-03-27T18:09:56.062Z,13.00
2019-03-27T18:12:25.780Z,13.00
2019-03-27T18:14:55.618Z,11.53
2019-03-27T18:17:25.907Z,8.70
2019-03-27T18:19:55.716Z,10.90
2019-03-27T18:22:25.843Z,11.00
2019-03-27T18:24:55.648Z,10.77
2019-03-27T18:27:25.911Z,11.50
2019-03-27T18:29:55.763Z,11.97
2019-03-27T18:32:25.519Z,8.17
2019-03-27T18:34:55.833Z,9.57
2019-03-27T18:37:25.580Z,9.77
2019-03-27T18:39:55.402Z,10.03
2019-03-27T18:42:25.121Z,8.83
2019-03-27T18:44:54.930Z,12.47
2019-03-27T18:47:25.117Z,10.97
2019-03-27T18:49:55.229Z,10.83
2019-03-27T18:52:24.961Z,9.93
2019-03-27T18:54:54.787Z,10.07
2019-03-27T18:57:24.616Z,11.47
2019-03-27T18:59:54.757Z,10.07
2019-03-27T19:02:24.520Z,12.10
2019-03-27T19:04:54.379Z,12.33
2019-03-27T19:07:24.108Z,11.40
2019-03-27T19:09:53.871Z,10.37
2019-03-27T19:12:26.875Z,10.57
2019-03-27T19:14:55.474Z,12.83
2019-03-27T19:17:25.293Z,9.73
2019-03-27T19:19:55.022Z,11.17
2019-03-27T19:22:24.830Z,11.70
2019-03-27T19:24:54.566Z,11.40
2019-03-27T19:27:24.737Z,12.60
2019-03-27T19:29:54.475Z,12.00
2019-03-27T19:32:24.666Z,10.63
2019-03-27T19:34:54.724Z,9.83
2019-03-27T19:37:25.018Z,10.03
2019-03-27T19:39:54.763Z,11.43
2019-03-27T19:42:24.649Z,9.47
2019-03-27T19:44:54.418Z,10.57
2019-03-27T19:47:24.234Z,11.07
2019-03-27T19:49:54.002Z,8.97
2019-03-27T19:52:23.892Z,9.50
2019-03-27T19:54:53.656Z,8.27
2019-03-27T19:57:23.469Z,11.40
2019-03-27T19:59:53.253Z,11.87
2019-03-27T20:02:23.183Z,10.53
2019-03-27T20:04:52.931Z,12.07
2019-03-27T20:07:35.168Z,11.07
2019-03-27T20:09:54.824Z,10.30
2019-03-27T20:12:24.651Z,15.50
2019-03-27T20:14:54.400Z,13.63
2019-03-27T20:17:24.620Z,12.80
2019-03-27T20:19:54.419Z,16.60
2019-03-27T20:22:24.357Z,15.73
2019-03-27T20:24:54.193Z,15.63
2019-03-27T20:27:24.025Z,14.47
2019-03-27T20:29:53.796Z,13.93
2019-03-27T20:32:23.671Z,11.90
2019-03-27T20:34:53.441Z,16.17
2019-03-27T20:37:23.671Z,14.73
2019-03-27T20:39:53.551Z,14.13
2019-03-27T20:42:23.366Z,14.90
2019-03-27T20:44:53.128Z,13.00
2019-03-27T20:47:23.275Z,16.33
2019-03-27T20:49:53.028Z,14.43
2019-03-27T20:52:22.866Z,13.37
2019-03-27T20:54:55.320Z,14.03
2019-03-27T20:57:24.189Z,14.97
2019-03-27T20:59:53.936Z,15.53
2019-03-27T21:02:23.794Z,13.40
2019-03-27T21:04:53.528Z,13.60
2019-03-27T21:07:24.687Z,17.13
2019-03-27T21:09:55.216Z,17.53
2019-03-27T21:12:25.520Z,15.27
2019-03-27T21:14:55.305Z,13.27
2019-03-27T21:17:25.137Z,14.77
2019-03-27T21:19:54.870Z,14.73
2019-03-27T21:22:24.704Z,13.07
2019-03-27T21:25:07.924Z,15.47
2019-03-27T21:27:27.353Z,13.70
2019-03-27T21:29:57.112Z,17.77
2019-03-27T21:32:26.977Z,13.20
2019-03-27T21:34:56.729Z,14.47
2019-03-27T21:37:26.623Z,14.80
2019-03-27T21:39:56.389Z,14.00
2019-03-27T21:42:26.206Z,13.00
2019-03-27T21:44:56.128Z,15.13
2019-03-27T21:47:44.857Z,15.17
2019-03-27T21:50:53.716Z,15.40
2019-03-27T21:53:23.534Z,16.17
2019-03-27T21:56:12.297Z,14.90
2019-03-27T21:59:21.269Z,15.57
2019-03-27T22:01:52.114Z,15.60
2019-03-27T22:04:22.060Z,14.27
2019-03-27T22:06:51.829Z,16.60
2019-03-27T22:09:21.748Z,14.10
2019-03-27T22:11:51.502Z,14.60
2019-03-27T22:14:21.368Z,15.53
2019-03-27T22:16:53.308Z,14.77
2019-03-27T22:19:23.550Z,16.47
2019-03-27T22:21:53.330Z,16.07
2019-03-27T22:24:23.181Z,15.60
2019-03-27T22:26:52.930Z,17.60
2019-03-27T22:29:23.094Z,17.43
2019-03-27T22:31:52.906Z,16.47
2019-03-27T22:34:22.718Z,13.00
2019-03-27T22:36:52.548Z,15.93
2019-03-27T22:41:57.600Z,16.60
2019-03-27T22:44:27.419Z,17.30
2019-03-27T22:46:57.568Z,16.30
2019-03-27T22:49:27.397Z,17.53
2019-03-27T22:51:57.139Z,14.60
2019-03-27T22:54:26.957Z,17.80
2019-03-27T22:56:57.126Z,16.57
2019-03-27T22:59:27.289Z,16.17
2019-03-27T23:01:57.160Z,16.87
2019-03-27T23:04:26.958Z,16.50
2019-03-27T23:06:56.772Z,17.83
2019-03-27T23:09:26.607Z,17.03
2019-03-27T23:11:56.568Z,16.03
2019-03-27T23:14:26.374Z,16.07
2019-03-27T23:16:56.097Z,15.97
2019-03-27T23:19:25.895Z,16.10
2019-03-27T23:21:55.750Z,16.67
2019-03-27T23:24:25.635Z,17.37
2019-03-27T23:26:55.473Z,15.93
2019-03-27T23:29:25.302Z,15.07
2019-03-27T23:31:55.021Z,21.53
2019-03-27T23:34:24.893Z,15.40
2019-03-27T23:36:54.709Z,16.90
2019-03-27T23:39:24.535Z,15.53
2019-03-27T23:41:54.400Z,17.37
2019-03-27T23:44:24.209Z,18.03
2019-03-27T23:46:53.942Z,18.77
2019-03-27T23:49:23.746Z,17.90
2019-03-27T23:51:53.479Z,18.93
2019-03-27T23:54:23.284Z,16.20
2019-03-27T23:56:53.025Z,19.57
2019-03-27T23:59:22.829Z,18.13
